createdAt,value
2023-05-18T00:00:06.730Z,3.20
2023-05-18T00:02:34.311Z,3.10
2023-05-18T00:05:02.405Z,4.18
2023-05-18T00:07:34.240Z,3.58
2023-05-18T00:10:02.013Z,3.90
2023-05-18T00:12:29.360Z,3.85
2023-05-18T00:14:56.574Z,3.20
2023-05-18T00:17:23.742Z,2.60
2023-05-18T00:19:50.876Z,2.15
2023-05-18T00:22:20.786Z,2.40
2023-05-18T00:24:48.634Z,1.70
2023-05-18T00:27:15.737Z,1.90
2023-05-18T00:29:42.667Z,1.90
2023-05-18T00:32:09.648Z,1.70
2023-05-18T00:34:36.850Z,1.50
2023-05-18T00:37:03.864Z,2.10
2023-05-18T00:39:30.974Z,1.85
2023-05-18T00:41:57.919Z,2.33
2023-05-18T00:44:24.972Z,2.38
2023-05-18T00:46:52.165Z,2.30
2023-05-18T00:49:19.665Z,2.60
2023-05-18T00:51:47.360Z,3.08
2023-05-18T00:54:15.622Z,2.58
2023-05-18T00:56:46.314Z,1.80
2023-05-18T00:59:13.554Z,2.35
2023-05-18T01:01:47.041Z,1.70
2023-05-18T01:04:15.922Z,1.80
2023-05-18T01:06:42.988Z,1.75
2023-05-18T01:09:12.291Z,1.70
2023-05-18T01:12:05.905Z,1.65
2023-05-18T01:15:01.976Z,1.10
2023-05-18T01:17:51.103Z,1.73
2023-05-18T01:20:46.429Z,1.70
2023-05-18T01:23:45.033Z,1.63
2023-05-18T01:26:15.508Z,1.60
2023-05-18T01:28:46.431Z,1.77
2023-05-18T01:31:16.251Z,2.03
2023-05-18T01:33:44.673Z,1.95
2023-05-18T01:36:11.854Z,1.80
2023-05-18T01:38:41.656Z,1.63
2023-05-18T01:41:22.507Z,1.75
2023-05-18T01:44:19.222Z,2.63
2023-05-18T01:47:04.146Z,2.85
2023-05-18T01:49:56.915Z,2.67
2023-05-18T01:52:32.748Z,2.03
2023-05-18T01:55:03.646Z,1.60
2023-05-18T01:57:33.076Z,1.77
2023-05-18T02:00:00.815Z,2.30
2023-05-18T02:02:28.800Z,1.58
2023-05-18T02:04:56.333Z,1.58
2023-05-18T02:07:23.284Z,1.58
2023-05-18T02:09:50.304Z,1.60
2023-05-18T02:12:17.296Z,1.65
2023-05-18T02:14:44.292Z,1.45
2023-05-18T02:17:13.772Z,1.70
2023-05-18T02:19:41.451Z,1.85
2023-05-18T02:22:08.445Z,1.95
2023-05-18T02:24:35.617Z,1.77
2023-05-18T02:27:02.587Z,1.90
2023-05-18T02:29:29.575Z,2.25
2023-05-18T02:31:56.582Z,2.28
2023-05-18T02:34:24.909Z,2.42
2023-05-18T02:36:51.969Z,2.35
2023-05-18T02:39:19.008Z,2.10
2023-05-18T02:41:46.326Z,2.25
2023-05-18T02:44:13.350Z,2.75
2023-05-18T02:46:40.583Z,2.33
2023-05-18T02:49:07.543Z,1.90
2023-05-18T02:51:34.525Z,2.25
2023-05-18T02:54:01.830Z,1.88
2023-05-18T02:56:29.080Z,2.00
2023-05-18T02:58:58.488Z,1.95
2023-05-18T03:01:27.118Z,2.00
2023-05-18T03:03:54.747Z,1.50
2023-05-18T03:06:26.936Z,2.08
2023-05-18T03:08:57.141Z,2.95
2023-05-18T03:11:24.551Z,4.00
2023-05-18T03:13:52.017Z,22.33
2023-05-18T03:16:19.026Z,71.80
2023-05-18T03:18:46.234Z,7.22
2023-05-18T03:21:13.874Z,7.78
2023-05-18T03:23:41.232Z,6.55
2023-05-18T03:26:11.740Z,7.63
2023-05-18T03:28:39.204Z,11.48
2023-05-18T03:31:06.372Z,11.75
2023-05-18T03:33:33.916Z,14.55
2023-05-18T03:36:04.859Z,18.23
2023-05-18T03:38:31.936Z,20.55
2023-05-18T03:40:59.114Z,20.48
2023-05-18T03:43:26.216Z,19.23
2023-05-18T03:45:53.774Z,22.20
2023-05-18T03:48:21.841Z,20.05
2023-05-18T03:50:49.035Z,17.95
2023-05-18T03:53:19.396Z,13.55
2023-05-18T03:55:46.695Z,21.35
2023-05-18T03:58:13.785Z,9.77
2023-05-18T04:00:40.891Z,7.63
2023-05-18T04:03:07.896Z,6.32
2023-05-18T04:05:34.889Z,5.65
2023-05-18T04:08:02.169Z,6.18
2023-05-18T04:10:29.121Z,7.00
2023-05-18T04:12:56.193Z,7.55
2023-05-18T04:15:23.209Z,8.45
2023-05-18T04:17:51.813Z,8.55
2023-05-18T04:20:19.416Z,7.53
2023-05-18T04:22:48.545Z,5.60
2023-05-18T04:25:16.418Z,4.72
2023-05-18T04:27:50.479Z,2.80
2023-05-18T04:30:19.083Z,2.20
2023-05-18T04:32:46.648Z,1.60
2023-05-18T04:35:13.880Z,13.88
2023-05-18T04:37:41.109Z,1.50
2023-05-18T04:40:12.947Z,1.40
2023-05-18T04:42:47.928Z,1.30
2023-05-18T04:45:17.226Z,1.40
2023-05-18T04:47:48.549Z,1.27
2023-05-18T04:50:19.159Z,1.10
2023-05-18T04:52:50.267Z,1.35
2023-05-18T04:57:47.779Z,1.25
2023-05-18T05:00:15.555Z,1.33
2023-05-18T05:02:42.518Z,1.60
2023-05-18T05:05:09.751Z,1.17
2023-05-18T05:07:36.701Z,1.25
2023-05-18T05:10:04.338Z,1.23
2023-05-18T05:12:31.339Z,1.48
2023-05-18T05:14:58.438Z,1.45
2023-05-18T05:17:25.661Z,1.00
2023-05-18T05:19:52.589Z,1.88
2023-05-18T05:22:20.071Z,1.70
2023-05-18T05:24:47.238Z,1.65
2023-05-18T05:27:14.163Z,1.33
2023-05-18T05:29:41.179Z,1.08
2023-05-18T05:32:08.338Z,0.70
2023-05-18T05:34:35.254Z,0.77
2023-05-18T05:37:02.229Z,0.98
2023-05-18T05:39:29.176Z,1.40
2023-05-18T05:41:56.389Z,1.40
2023-05-18T05:44:23.516Z,1.00
2023-05-18T05:46:50.683Z,1.08
2023-05-18T05:49:17.657Z,0.80
2023-05-18T05:51:44.684Z,0.88
2023-05-18T05:54:11.617Z,1.02
2023-05-18T05:56:38.568Z,1.30
2023-05-18T05:59:06.075Z,1.45
2023-05-18T06:01:33.018Z,1.17
2023-05-18T06:04:00.004Z,1.42
2023-05-18T06:06:27.541Z,1.27
2023-05-18T06:08:54.454Z,1.70
2023-05-18T06:11:21.373Z,1.15
2023-05-18T06:13:48.361Z,1.10
2023-05-18T06:16:15.409Z,1.55
2023-05-18T06:18:43.237Z,1.70
2023-05-18T06:21:10.220Z,2.10
2023-05-18T06:23:38.424Z,2.30
2023-05-18T06:26:07.411Z,2.50
2023-05-18T06:28:34.419Z,2.75
2023-05-18T06:31:01.628Z,3.00
2023-05-18T06:33:28.697Z,3.22
2023-05-18T06:35:55.792Z,5.50
2023-05-18T06:38:22.709Z,4.65
2023-05-18T06:40:50.260Z,4.38
2023-05-18T06:43:18.508Z,6.03
2023-05-18T06:45:47.026Z,6.30
2023-05-18T06:48:14.017Z,3.65
2023-05-18T06:50:41.013Z,3.35
2023-05-18T06:53:07.941Z,3.65
2023-05-18T06:55:34.874Z,5.55
2023-05-18T06:58:02.847Z,6.20
2023-05-18T07:00:29.765Z,7.38
2023-05-18T07:02:56.723Z,8.40
2023-05-18T07:05:24.882Z,6.25
2023-05-18T07:07:51.972Z,5.40
2023-05-18T07:10:18.939Z,9.85
2023-05-18T07:12:46.193Z,9.75
2023-05-18T07:15:13.103Z,8.40
2023-05-18T07:17:40.236Z,6.82
2023-05-18T07:20:08.332Z,6.18
2023-05-18T07:22:35.660Z,7.43
2023-05-18T07:25:02.618Z,7.78
2023-05-18T07:27:29.725Z,6.40
2023-05-18T07:29:56.702Z,5.05
2023-05-18T07:32:23.678Z,3.08
2023-05-18T07:41:36.340Z,1.80
2023-05-18T07:44:03.297Z,2.50
2023-05-18T07:46:30.351Z,2.17
2023-05-18T07:52:44.813Z,3.40
2023-05-18T07:55:11.804Z,1.63
2023-05-18T07:57:39.897Z,1.30
2023-05-18T08:00:09.193Z,1.13
2023-05-18T08:02:36.416Z,1.00
2023-05-18T08:05:04.123Z,1.50
2023-05-18T08:07:33.007Z,1.30
2023-05-18T08:09:59.966Z,1.50
2023-05-18T08:12:27.074Z,1.10
2023-05-18T08:14:54.083Z,1.00
2023-05-18T08:17:21.216Z,1.30
2023-05-18T08:19:48.616Z,2.63
2023-05-18T08:22:15.934Z,2.00
2023-05-18T08:24:42.946Z,1.60
2023-05-18T08:27:11.437Z,1.30
2023-05-18T08:29:38.540Z,1.40
2023-05-18T08:32:08.867Z,2.47
2023-05-18T08:34:36.044Z,3.40
2023-05-18T08:37:03.195Z,4.82
2023-05-18T08:39:32.128Z,7.10
2023-05-18T08:42:03.655Z,9.05
2023-05-18T08:44:46.156Z,8.40
2023-05-18T08:47:16.391Z,5.68
2023-05-18T08:49:43.494Z,5.22
2023-05-18T08:52:17.945Z,5.78
2023-05-18T08:54:45.959Z,6.00
2023-05-18T08:57:13.477Z,5.35
2023-05-18T08:59:42.434Z,6.03
2023-05-18T09:02:10.719Z,5.50
2023-05-18T09:04:38.776Z,4.65
2023-05-18T09:07:07.397Z,4.13
2023-05-18T09:09:36.170Z,5.57
2023-05-18T09:12:04.031Z,4.78
2023-05-18T09:14:32.536Z,4.13
2023-05-18T09:16:59.705Z,3.90
2023-05-18T09:19:26.902Z,3.90
2023-05-18T09:21:53.992Z,4.13
2023-05-18T09:24:24.380Z,2.58
2023-05-18T09:29:24.371Z,1.38
2023-05-18T09:31:52.105Z,1.40
2023-05-18T09:34:19.522Z,1.17
2023-05-18T09:36:57.172Z,1.00
2023-05-18T09:39:24.242Z,0.70
2023-05-18T09:41:59.056Z,0.52
2023-05-18T09:44:34.668Z,0.60
2023-05-18T09:47:02.367Z,0.90
2023-05-18T09:49:31.164Z,1.55
2023-05-18T09:52:00.210Z,1.67
2023-05-18T09:54:27.495Z,2.97
2023-05-18T09:57:09.543Z,3.20
2023-05-18T09:59:37.699Z,3.10
2023-05-18T10:02:06.158Z,2.25
2023-05-18T10:04:41.864Z,2.33
2023-05-18T10:07:16.869Z,1.60
2023-05-18T10:09:47.226Z,0.90
2023-05-18T10:12:16.342Z,1.38
2023-05-18T10:14:46.731Z,0.90
2023-05-18T10:17:17.059Z,0.40
2023-05-18T10:19:45.360Z,0.50
2023-05-18T10:22:16.392Z,2.92
2023-05-18T10:27:17.816Z,1.00
2023-05-18T10:29:46.519Z,2.10
2023-05-18T10:32:15.463Z,1.20
2023-05-18T10:34:44.302Z,1.92
2023-05-18T10:37:12.931Z,1.20
2023-05-18T10:39:42.469Z,0.85
2023-05-18T10:42:10.615Z,1.10
2023-05-18T10:44:40.058Z,1.35
2023-05-18T10:47:08.984Z,1.45
2023-05-18T10:49:36.831Z,1.08
2023-05-18T10:52:04.258Z,1.52
2023-05-18T10:54:32.183Z,1.73
2023-05-18T10:57:00.132Z,1.42
2023-05-18T10:59:27.862Z,1.30
2023-05-18T11:01:57.589Z,1.77
2023-05-18T11:04:27.520Z,1.67
2023-05-18T11:07:04.408Z,0.80
2023-05-18T11:09:33.752Z,0.30
2023-05-18T11:12:01.077Z,0.98
2023-05-18T11:14:32.652Z,1.20
2023-05-18T11:17:26.215Z,2.10
2023-05-18T11:20:08.820Z,2.75
2023-05-18T11:22:57.445Z,2.22
2023-05-18T11:25:34.193Z,2.95
2023-05-18T11:28:13.834Z,4.45
2023-05-18T11:30:40.794Z,2.30
2023-05-18T11:33:16.045Z,1.80
2023-05-18T11:35:55.064Z,0.70
2023-05-18T11:38:23.159Z,1.45
2023-05-18T11:40:51.254Z,1.75
2023-05-18T11:43:25.340Z,1.90
2023-05-18T11:45:53.322Z,1.55
2023-05-18T11:48:32.893Z,1.25
2023-05-18T11:51:00.160Z,1.30
2023-05-18T11:53:27.508Z,1.33
2023-05-18T11:55:57.542Z,1.88
2023-05-18T11:58:25.363Z,1.70
2023-05-18T12:00:52.989Z,2.20
2023-05-18T12:03:25.962Z,2.50
2023-05-18T12:05:53.942Z,1.55
2023-05-18T12:08:21.855Z,1.40
2023-05-18T12:10:52.355Z,1.00
2023-05-18T12:13:19.686Z,0.90
2023-05-18T12:15:46.928Z,1.38
2023-05-18T12:18:14.479Z,1.30
2023-05-18T12:20:41.535Z,2.30
2023-05-18T12:23:08.583Z,1.73
2023-05-18T12:25:36.678Z,1.02
2023-05-18T12:28:05.037Z,1.40
2023-05-18T12:30:35.971Z,1.00
2023-05-18T12:33:04.432Z,1.65
2023-05-18T12:35:32.195Z,0.73
2023-05-18T12:38:01.524Z,0.55
2023-05-18T12:40:44.577Z,0.38
2023-05-18T12:43:13.493Z,0.50
2023-05-18T12:45:41.203Z,0.32
2023-05-18T12:48:09.964Z,0.30
2023-05-18T12:50:38.867Z,0.30
2023-05-18T12:53:06.056Z,0.40
2023-05-18T12:55:33.702Z,0.40
2023-05-18T12:58:03.479Z,0.32
2023-05-18T13:00:34.329Z,0.40
2023-05-18T13:03:17.998Z,0.35
2023-05-18T13:05:46.555Z,0.50
2023-05-18T13:08:22.134Z,0.30
2023-05-18T13:11:01.197Z,0.32
2023-05-18T13:13:37.936Z,0.30
2023-05-18T13:16:05.214Z,0.30
2023-05-18T13:18:32.185Z,0.20
2023-05-18T13:20:59.149Z,0.30
2023-05-18T13:23:30.140Z,0.20
2023-05-18T13:25:58.916Z,0.50
2023-05-18T13:28:26.658Z,0.20
2023-05-18T13:30:53.693Z,0.20
2023-05-18T13:33:21.597Z,0.25
2023-05-18T13:35:49.929Z,0.30
2023-05-18T13:38:17.147Z,0.20
2023-05-18T13:40:44.193Z,0.30
2023-05-18T13:43:13.515Z,0.38
2023-05-18T13:45:43.592Z,0.30
2023-05-18T13:48:11.449Z,0.50
2023-05-18T13:50:39.708Z,0.38
2023-05-18T13:53:07.094Z,0.50
2023-05-18T13:55:34.620Z,0.40
2023-05-18T13:58:01.555Z,0.20
2023-05-18T14:00:28.743Z,0.30
2023-05-18T14:02:56.887Z,0.52
2023-05-18T14:05:24.371Z,0.30
2023-05-18T14:07:54.258Z,0.30
2023-05-18T14:10:21.403Z,0.30
2023-05-18T14:12:48.570Z,0.40
2023-05-18T14:15:15.574Z,0.20
2023-05-18T14:17:43.722Z,0.30
2023-05-18T14:20:12.136Z,0.28
2023-05-18T14:22:39.473Z,0.40
2023-05-18T14:25:06.659Z,0.20
2023-05-18T14:27:33.731Z,0.20
2023-05-18T14:30:01.434Z,0.28
2023-05-18T14:32:28.579Z,0.20
2023-05-18T14:34:58.111Z,0.30
2023-05-18T14:37:25.927Z,0.30
2023-05-18T14:39:52.995Z,0.50
2023-05-18T14:42:20.043Z,0.22
2023-05-18T14:44:47.245Z,0.20
2023-05-18T14:47:14.409Z,0.20
2023-05-18T14:49:41.399Z,0.25
2023-05-18T14:52:08.337Z,0.30
2023-05-18T14:54:35.537Z,0.38
2023-05-18T14:57:02.523Z,0.30
2023-05-18T14:59:29.464Z,0.30
2023-05-18T15:01:56.487Z,0.20
2023-05-18T15:04:23.743Z,0.20
2023-05-18T15:06:50.879Z,0.70
2023-05-18T15:09:17.829Z,0.40
2023-05-18T15:11:44.848Z,0.55
2023-05-18T15:14:11.849Z,0.60
2023-05-18T15:16:39.011Z,0.32
2023-05-18T15:19:06.345Z,0.40
2023-05-18T15:21:33.430Z,0.32
2023-05-18T15:24:02.715Z,0.40
2023-05-18T15:26:29.802Z,0.43
2023-05-18T15:28:56.842Z,0.40
2023-05-18T15:31:23.773Z,0.38
2023-05-18T15:33:50.700Z,0.50
2023-05-18T15:36:17.682Z,0.40
2023-05-18T15:38:44.847Z,0.30
2023-05-18T15:41:11.831Z,0.45
2023-05-18T15:43:39.462Z,0.40
2023-05-18T15:46:06.544Z,0.50
2023-05-18T15:48:33.647Z,0.40
2023-05-18T15:51:00.714Z,0.40
2023-05-18T15:53:27.748Z,0.50
2023-05-18T15:55:58.752Z,0.50
2023-05-18T15:58:27.751Z,0.50
2023-05-18T16:00:54.984Z,0.40
2023-05-18T16:03:22.211Z,0.40
2023-05-18T16:05:49.338Z,0.30
2023-05-18T16:08:16.339Z,0.40
2023-05-18T16:10:43.272Z,0.32
2023-05-18T16:13:10.235Z,0.50
2023-05-18T16:15:37.272Z,0.50
2023-05-18T16:18:04.589Z,0.50
2023-05-18T16:20:31.917Z,0.35
2023-05-18T16:22:59.682Z,0.50
2023-05-18T16:25:26.775Z,0.30
2023-05-18T16:27:53.715Z,0.45
2023-05-18T16:30:20.899Z,0.40
2023-05-18T16:32:48.079Z,0.50
2023-05-18T16:35:15.172Z,0.43
2023-05-18T16:37:42.143Z,0.30
2023-05-18T16:40:09.479Z,0.38
2023-05-18T16:42:37.024Z,0.32
2023-05-18T16:45:04.252Z,0.40
2023-05-18T16:47:34.172Z,0.40
2023-05-18T16:50:01.383Z,0.50
2023-05-18T16:52:29.952Z,0.50
2023-05-18T16:57:28.027Z,0.50
2023-05-18T16:59:54.940Z,0.40
2023-05-18T17:02:24.386Z,1.00
2023-05-18T17:04:51.651Z,0.82
2023-05-18T17:07:20.190Z,0.70
2023-05-18T17:09:50.424Z,0.52
2023-05-18T17:12:17.719Z,0.40
2023-05-18T17:14:48.177Z,0.50
2023-05-18T17:17:16.421Z,0.47
2023-05-18T17:19:43.500Z,0.60
2023-05-18T17:22:13.934Z,0.57
2023-05-18T17:24:41.774Z,0.40
2023-05-18T17:27:09.270Z,0.45
2023-05-18T17:29:36.342Z,0.50
2023-05-18T17:32:03.758Z,0.52
2023-05-18T17:34:31.386Z,0.57
2023-05-18T17:36:58.832Z,0.60
2023-05-18T17:39:26.335Z,0.60
2023-05-18T17:41:54.472Z,0.52
2023-05-18T17:44:21.577Z,0.50
2023-05-18T17:46:48.973Z,0.60
2023-05-18T17:49:16.283Z,0.73
2023-05-18T17:51:43.564Z,0.60
2023-05-18T17:54:10.893Z,0.90
2023-05-18T17:56:38.634Z,0.60
2023-05-18T17:59:06.275Z,0.88
2023-05-18T18:01:34.146Z,0.65
2023-05-18T18:04:01.653Z,0.77
2023-05-18T18:06:28.686Z,0.63
2023-05-18T18:08:58.286Z,0.90
2023-05-18T18:11:26.332Z,0.60
2023-05-18T18:13:53.422Z,0.70
2023-05-18T18:16:21.286Z,0.50
2023-05-18T18:18:48.847Z,0.60
2023-05-18T18:21:16.224Z,0.70
2023-05-18T18:23:43.311Z,0.70
2023-05-18T18:26:10.541Z,0.80
2023-05-18T18:28:37.749Z,0.60
2023-05-18T18:31:04.984Z,0.80
2023-05-18T18:33:35.307Z,0.50
2023-05-18T18:36:03.935Z,0.50
2023-05-18T18:38:33.099Z,0.60
2023-05-18T18:41:05.208Z,0.52
2023-05-18T18:43:32.757Z,0.52
2023-05-18T18:45:59.957Z,0.70
2023-05-18T18:48:27.400Z,0.60
2023-05-18T18:50:54.433Z,0.63
2023-05-18T18:53:21.423Z,0.80
2023-05-18T18:55:48.452Z,0.70
2023-05-18T18:58:15.762Z,0.75
2023-05-18T19:00:43.049Z,0.77
2023-05-18T19:03:14.605Z,6.43
2023-05-18T19:05:41.761Z,1.00
2023-05-18T19:08:08.699Z,0.80
2023-05-18T19:10:36.084Z,0.90
2023-05-18T19:13:05.925Z,0.77
2023-05-18T19:15:34.766Z,0.75
2023-05-18T19:18:02.394Z,0.70
2023-05-18T19:20:29.537Z,0.70
2023-05-18T19:22:57.013Z,0.82
2023-05-18T19:25:25.668Z,1.10
2023-05-18T19:27:53.852Z,1.52
2023-05-18T19:30:21.961Z,1.48
2023-05-18T19:32:50.282Z,1.35
2023-05-18T19:35:19.808Z,1.35
2023-05-18T19:37:47.612Z,1.58
2023-05-18T19:40:14.782Z,1.33
2023-05-18T19:42:41.842Z,1.15
2023-05-18T19:45:09.014Z,1.23
2023-05-18T19:47:36.837Z,1.20
2023-05-18T19:50:04.720Z,1.40
2023-05-18T19:52:33.630Z,1.27
2023-05-18T19:55:02.381Z,1.80
2023-05-18T19:57:29.693Z,1.70
2023-05-18T19:59:57.911Z,5.30
2023-05-18T20:02:25.235Z,9.98
2023-05-18T20:04:53.627Z,10.15
2023-05-18T20:07:20.761Z,11.55
2023-05-18T20:09:47.957Z,10.73
2023-05-18T20:12:14.933Z,8.05
2023-05-18T20:14:43.521Z,6.03
2023-05-18T20:17:10.583Z,3.80
2023-05-18T20:19:37.943Z,3.10
2023-05-18T20:22:05.630Z,2.65
2023-05-18T20:24:32.808Z,2.00
2023-05-18T20:27:01.325Z,1.75
2023-05-18T20:29:29.556Z,1.67
2023-05-18T20:31:56.638Z,1.23
2023-05-18T20:34:23.620Z,1.40
2023-05-18T20:36:50.570Z,1.23
2023-05-18T20:39:17.798Z,1.20
2023-05-18T20:41:44.712Z,1.30
2023-05-18T20:44:12.601Z,1.20
2023-05-18T20:46:42.727Z,1.55
2023-05-18T20:49:12.996Z,1.58
2023-05-18T20:51:40.002Z,1.35
2023-05-18T20:54:07.052Z,1.55
2023-05-18T20:56:36.117Z,1.52
2023-05-18T20:59:06.150Z,1.23
2023-05-18T21:01:38.852Z,1.08
2023-05-18T21:04:06.354Z,1.90
2023-05-18T21:06:34.461Z,1.65
2023-05-18T21:09:01.699Z,2.00
2023-05-18T21:11:31.010Z,1.50
2023-05-18T21:13:57.954Z,1.63
2023-05-18T21:16:25.077Z,1.30
2023-05-18T21:18:52.139Z,1.20
2023-05-18T21:21:19.074Z,1.55
2023-05-18T21:23:46.261Z,1.42
2023-05-18T21:26:13.318Z,1.17
2023-05-18T21:28:40.234Z,1.38
2023-05-18T21:31:07.217Z,2.17
2023-05-18T21:33:34.504Z,3.40
2023-05-18T21:36:04.430Z,2.67
2023-05-18T21:38:31.568Z,2.70
2023-05-18T21:40:58.708Z,2.95
2023-05-18T21:43:25.641Z,2.33
2023-05-18T21:45:52.655Z,2.45
2023-05-18T21:48:19.593Z,1.98
2023-05-18T21:50:46.493Z,1.85
2023-05-18T21:53:13.539Z,1.88
2023-05-18T21:55:40.675Z,1.33
2023-05-18T21:58:07.688Z,1.27
2023-05-18T22:00:35.636Z,1.13
2023-05-18T22:03:02.760Z,1.30
2023-05-18T22:05:31.295Z,1.52
2023-05-18T22:07:59.188Z,1.50
2023-05-18T22:10:26.220Z,2.03
2023-05-18T22:12:53.128Z,0.95
2023-05-18T22:15:22.533Z,1.15
2023-05-18T22:17:49.796Z,0.95
2023-05-18T22:20:17.307Z,1.40
2023-05-18T22:22:44.711Z,1.15
2023-05-18T22:25:12.198Z,1.30
2023-05-18T22:27:39.243Z,1.50
2023-05-18T22:30:07.478Z,1.45
2023-05-18T22:32:34.815Z,1.40
2023-05-18T22:35:02.076Z,1.30
2023-05-18T22:37:29.052Z,1.10
2023-05-18T22:39:56.000Z,1.05
2023-05-18T22:42:22.916Z,1.00
2023-05-18T22:44:49.950Z,1.02
2023-05-18T22:47:20.169Z,1.17
2023-05-18T22:49:47.816Z,1.00
2023-05-18T22:52:16.587Z,1.20
2023-05-18T22:54:43.589Z,0.95
2023-05-18T22:57:10.748Z,0.90
2023-05-18T22:59:37.925Z,1.30
2023-05-18T23:02:05.751Z,0.80
2023-05-18T23:04:33.870Z,1.33
2023-05-18T23:07:01.986Z,1.13
2023-05-18T23:09:30.604Z,1.13
2023-05-18T23:11:59.658Z,1.02
2023-05-18T23:14:28.269Z,1.63
2023-05-18T23:16:58.401Z,1.27
2023-05-18T23:19:26.761Z,1.67
2023-05-18T23:21:54.416Z,1.83
2023-05-18T23:24:21.958Z,1.88
2023-05-18T23:26:49.326Z,1.55
2023-05-18T23:29:16.460Z,1.67
2023-05-18T23:31:43.384Z,1.40
2023-05-18T23:34:10.972Z,1.40
2023-05-18T23:36:39.899Z,1.42
2023-05-18T23:39:07.407Z,1.67
2023-05-18T23:41:36.085Z,1.10
2023-05-18T23:44:03.523Z,1.20
2023-05-18T23:46:31.832Z,1.20
2023-05-18T23:48:59.878Z,1.20
2023-05-18T23:51:30.976Z,1.25
2023-05-18T23:53:58.844Z,1.40
2023-05-18T23:56:26.119Z,1.50
2023-05-18T23:58:53.303Z,1.50
